Time;durP1;ratioP1;P1;durP2;ratioP2;P2;SDS_P1;SDS_P2;PMS_P1;PMS_P2;Temp;Humidity;BMP_temperature;BMP_pressure;BME280_temperature;BME280_humidity;BME280_pressure;Samples;Min_cycle;Max_cycle;Signal;HPM_P1;HPM_P2
2023/06/21 00:03:52;;;;;;;14.20;10.57;;;;;;;24.05;59.98;97498.78;10552376;28;20063;-67
2023/06/21 00:09:14;;;;;;;12.60;10.80;;;;;;;24.01;60.18;97490.19;10566908;28;20047;-67
2023/06/21 00:14:35;;;;;;;11.23;9.90;;;;;;;24.04;60.47;97482.38;10552253;28;20044;-67
2023/06/21 00:19:56;;;;;;;13.02;11.73;;;;;;;24.03;60.65;97495.19;10509805;28;20119;-67
2023/06/21 00:25:17;;;;;;;12.77;10.45;;;;;;;24.00;60.61;97485.88;10540131;28;20097;-67
2023/06/21 00:30:38;;;;;;;12.77;11.23;;;;;;;23.97;60.88;97499.41;10532673;28;20040;-67
2023/06/21 00:35:59;;;;;;;12.60;10.82;;;;;;;23.91;61.16;97507.88;10580383;28;20084;-67
2023/06/21 00:41:20;;;;;;;14.60;10.57;;;;;;;23.85;61.33;97516.38;10559611;28;20040;-66
2023/06/21 00:46:41;;;;;;;14.57;11.15;;;;;;;23.81;61.31;97501.34;10574087;28;20485;-67
2023/06/21 00:52:05;;;;;;;12.23;11.00;;;;;;;23.77;61.41;97510.59;10559984;28;20039;-67
2023/06/21 00:57:26;;;;;;;13.35;10.93;;;;;;;23.83;61.70;97518.47;10573782;28;20452;-67
2023/06/21 01:02:48;;;;;;;13.57;11.30;;;;;;;23.88;61.44;97529.25;10602710;27;20047;-67
2023/06/21 01:08:35;;;;;;;14.60;10.95;;;;;;;23.88;61.68;97537.06;10615466;27;20405;-67
2023/06/21 01:14:25;;;;;;;10.90;9.80;;;;;;;23.84;61.43;97537.03;10601069;27;20043;-67
2023/06/21 01:19:57;;;;;;;13.63;11.10;;;;;;;23.74;61.36;97534.03;10615826;27;20058;-67
2023/06/21 01:25:30;;;;;;;11.30;10.20;;;;;;;23.72;62.15;97536.88;10598742;27;20041;-67
2023/06/21 01:30:54;;;;;;;12.18;10.88;;;;;;;23.67;62.00;97545.38;10629956;27;20039;-67
2023/06/21 01:36:15;;;;;;;11.50;10.30;;;;;;;23.59;62.14;97553.09;10598376;27;20381;-67
2023/06/21 01:41:37;;;;;;;11.63;10.13;;;;;;;23.54;62.07;97580.75;10611281;27;20484;-67
2023/06/21 01:46:58;;;;;;;13.02;10.35;;;;;;;23.54;62.13;97568.66;10599958;27;20054;-67
2023/06/21 01:52:19;;;;;;;12.88;8.90;;;;;;;23.61;61.66;97568.06;10613808;27;20439;-67
2023/06/21 01:57:42;;;;;;;9.43;7.40;;;;;;;23.85;59.97;97556.28;10612993;27;20118;-67
2023/06/21 02:03:05;;;;;;;10.82;6.97;;;;;;;24.04;58.42;97565.06;10593991;27;20063;-67
2023/06/21 02:08:26;;;;;;;11.55;6.35;;;;;;;24.19;57.41;97555.94;10514389;28;20071;-67
2023/06/21 02:13:48;;;;;;;11.45;6.40;;;;;;;24.29;56.31;97566.75;10528794;28;20085;-67
2023/06/21 02:19:09;;;;;;;9.13;6.88;;;;;;;24.32;55.71;97547.53;10529558;28;20111;-67
2023/06/21 02:24:32;;;;;;;11.65;6.03;;;;;;;24.32;55.00;97556.09;10543041;28;20048;-66
2023/06/21 02:29:53;;;;;;;9.15;6.13;;;;;;;24.30;55.24;97548.22;10542809;28;20085;-67
2023/06/21 02:35:14;;;;;;;10.73;6.20;;;;;;;24.24;54.83;97545.31;10527484;28;20444;-66
2023/06/21 02:40:35;;;;;;;10.80;6.82;;;;;;;24.20;54.85;97556.66;10527574;28;20454;-67
2023/06/21 02:45:56;;;;;;;8.07;5.72;;;;;;;24.15;54.70;97558.75;10542037;28;20040;-67
2023/06/21 02:51:20;;;;;;;8.68;6.00;;;;;;;24.06;54.81;97554.38;10527063;28;20036;-67
2023/06/21 02:56:45;;;;;;;9.48;6.25;;;;;;;23.99;54.53;97567.13;10526505;28;20055;-67
2023/06/21 03:02:06;;;;;;;7.32;5.85;;;;;;;23.95;54.91;97558.53;10577671;27;20054;-67
2023/06/21 03:07:28;;;;;;;9.07;5.93;;;;;;;23.87;54.83;97561.28;10610641;27;20039;-67
2023/06/21 03:12:49;;;;;;;12.38;7.25;;;;;;;23.82;54.80;97597.56;10581895;27;20088;-67
2023/06/21 03:18:15;;;;;;;10.27;5.93;;;;;;;23.75;54.48;97603.88;10596704;27;20405;-67
2023/06/21 03:23:37;;;;;;;9.77;6.18;;;;;;;23.72;54.93;97596.69;10596080;27;20039;-67
2023/06/21 03:29:00;;;;;;;9.77;5.40;;;;;;;23.70;54.95;97609.50;10579811;27;20366;-66
2023/06/21 03:34:21;;;;;;;8.77;6.07;;;;;;;23.64;55.14;97618.00;10582593;28;20164;-67
2023/06/21 03:39:43;;;;;;;6.93;5.85;;;;;;;23.65;55.12;97636.53;10552725;28;20519;-67
2023/06/21 03:45:05;;;;;;;10.23;6.60;;;;;;;23.70;55.12;97614.50;10567359;28;20039;-67
2023/06/21 03:50:26;;;;;;;8.88;5.88;;;;;;;23.75;55.31;97626.69;10566514;28;20044;-66
2023/06/21 03:55:49;;;;;;;13.60;5.90;;;;;;;23.77;55.46;97630.28;10565593;28;20111;-67
2023/06/21 04:01:10;;;;;;;10.38;6.43;;;;;;;23.87;55.37;97632.53;10551457;28;20032;-67
2023/06/21 04:06:31;;;;;;;10.43;6.25;;;;;;;23.95;55.47;97638.34;10524502;28;20077;-66
2023/06/21 04:11:53;;;;;;;15.55;6.50;;;;;;;24.05;55.32;97652.00;10524340;28;20486;-67
2023/06/21 04:17:14;;;;;;;10.95;6.22;;;;;;;24.14;54.80;97657.13;10524358;28;20115;-67
2023/06/21 04:22:37;;;;;;;8.37;6.57;;;;;;;24.28;54.91;97668.69;10528655;28;20059;-67
2023/06/21 04:27:58;;;;;;;9.57;6.65;;;;;;;24.36;54.89;97678.81;10541732;28;20047;-68
2023/06/21 04:33:19;;;;;;;12.88;6.47;;;;;;;24.60;54.98;97675.50;10556434;28;20401;-68
2023/06/21 04:38:41;;;;;;;13.80;7.18;;;;;;;24.76;54.61;97689.94;10577646;28;20044;-69
2023/06/21 04:44:02;;;;;;;11.30;6.22;;;;;;;25.00;54.17;97695.91;10551587;28;20047;-69
2023/06/21 04:49:25;;;;;;;10.77;6.90;;;;;;;25.16;53.97;97688.94;10531218;28;20508;-68
2023/06/21 04:54:46;;;;;;;13.32;6.22;;;;;;;25.25;53.68;97688.31;10508024;28;20382;-69
2023/06/21 05:00:09;;;;;;;11.02;6.43;;;;;;;25.31;53.38;97679.81;10523808;28;20059;-68
2023/06/21 05:05:31;;;;;;;12.32;5.65;;;;;;;25.37;53.24;97687.69;10575213;28;20136;-68
2023/06/21 05:10:54;;;;;;;8.70;5.90;;;;;;;25.54;52.76;97677.09;10571076;28;20417;-69
2023/06/21 05:16:15;;;;;;;8.90;5.72;;;;;;;25.52;52.76;97671.38;10585258;27;20043;-69
2023/06/21 05:21:36;;;;;;;8.50;5.65;;;;;;;25.81;52.01;97672.31;10585667;27;20047;-67
2023/06/21 05:26:57;;;;;;;9.82;5.32;;;;;;;26.30;51.64;97696.19;10585274;28;20438;-68
2023/06/21 05:32:18;;;;;;;8.07;4.97;;;;;;;26.84;50.27;97700.69;10571439;28;20484;-70
2023/06/21 05:37:39;;;;;;;9.10;5.05;;;;;;;27.22;49.56;97696.50;10587046;28;20092;-70
2023/06/21 05:43:01;;;;;;;8.85;4.32;;;;;;;27.79;48.30;97705.78;10570927;28;20036;-70
2023/06/21 05:48:22;;;;;;;9.00;4.13;;;;;;;28.07;47.56;97702.16;10557556;28;20189;-71
2023/06/21 05:53:43;;;;;;;7.00;3.75;;;;;;;28.54;46.19;97712.81;10586329;28;20401;-70
2023/06/21 05:59:04;;;;;;;10.82;4.03;;;;;;;28.94;45.77;97712.63;10556780;28;20067;-71
2023/06/21 06:04:25;;;;;;;5.30;3.77;;;;;;;29.38;45.07;97722.41;10570447;28;20047;-71
2023/06/21 06:09:45;;;;;;;13.02;4.13;;;;;;;29.50;43.71;97736.69;10585680;28;20525;-71
2023/06/21 06:15:07;;;;;;;9.23;3.90;;;;;;;29.80;43.70;97761.63;10570392;28;20382;-71
2023/06/21 06:20:28;;;;;;;6.53;3.45;;;;;;;30.32;42.59;97768.34;10585299;28;20043;-71
2023/06/21 06:25:51;;;;;;;8.38;3.35;;;;;;;30.65;41.87;97770.88;10595708;27;20066;-71
2023/06/21 06:31:12;;;;;;;6.10;3.20;;;;;;;30.89;41.42;97759.06;10593668;27;20072;-71
2023/06/21 06:36:33;;;;;;;11.33;3.40;;;;;;;31.18;40.80;97773.81;10581082;28;20290;-75
2023/06/21 06:41:55;;;;;;;8.75;3.08;;;;;;;31.54;40.31;97789.88;10603444;27;20364;-72
2023/06/21 06:47:16;;;;;;;6.30;3.07;;;;;;;32.00;38.72;97790.59;10613955;27;20043;-72
2023/06/21 06:52:37;;;;;;;7.60;2.92;;;;;;;32.68;37.86;97793.69;10599842;27;20046;-72
2023/06/21 06:57:58;;;;;;;6.72;3.20;;;;;;;33.39;36.60;97796.59;10553711;28;20047;-72
2023/06/21 07:03:26;;;;;;;9.75;3.00;;;;;;;33.94;35.40;97810.50;10576079;27;20509;-72
2023/06/21 07:08:47;;;;;;;5.35;2.78;;;;;;;34.69;34.06;97810.72;10565287;28;20035;-71
2023/06/21 07:14:08;;;;;;;13.43;3.40;;;;;;;35.23;33.08;97813.56;10536451;28;20036;-69
2023/06/21 07:19:29;;;;;;;5.55;3.35;;;;;;;35.19;31.67;97819.47;10524939;28;20084;-71
2023/06/21 07:24:50;;;;;;;6.38;3.13;;;;;;;35.18;31.93;97815.16;10547794;28;20047;-72
2023/06/21 07:30:11;;;;;;;8.40;3.25;;;;;;;35.66;31.30;97818.75;10536829;28;20040;-72
2023/06/21 07:35:32;;;;;;;5.07;3.05;;;;;;;35.63;30.43;97805.81;10549366;28;20040;-70
2023/06/21 07:40:53;;;;;;;4.85;3.03;;;;;;;36.24;29.90;97806.00;10530309;28;20446;-74
2023/06/21 07:46:14;;;;;;;7.70;3.13;;;;;;;36.47;29.37;97823.38;10531338;28;20047;-74
2023/06/21 07:51:36;;;;;;;6.43;3.22;;;;;;;36.66;28.63;97819.03;10520094;28;20059;-73
2023/06/21 07:56:56;;;;;;;7.15;3.10;;;;;;;37.00;27.69;97819.31;10517484;28;20478;-71
2023/06/21 08:02:18;;;;;;;;;;;;;;;36.79;28.08;97821.53;10584576;28;20512;-71
2023/06/21 08:07:40;;;;;;;4.60;2.88;;;;;;;37.59;27.48;97825.78;10587632;28;19928;-72
2023/06/21 08:13:01;;;;;;;7.25;2.90;;;;;;;37.35;26.49;97823.81;10573529;28;20043;-75
2023/06/21 08:18:22;;;;;;;5.25;2.53;;;;;;;38.30;25.83;97837.47;10576807;28;20538;-74
2023/06/21 08:23:43;;;;;;;4.80;2.80;;;;;;;38.71;24.77;97844.50;10594721;28;20039;-73
2023/06/21 08:29:03;;;;;;;4.53;2.70;;;;;;;38.72;24.24;97851.75;10565052;28;20108;-71
2023/06/21 08:34:24;;;;;;;7.82;2.20;;;;;;;39.13;23.79;97847.72;10570714;28;20043;-72
2023/06/21 08:39:45;;;;;;;6.57;2.45;;;;;;;39.73;23.00;97843.47;10580054;28;20063;-72
2023/06/21 08:45:06;;;;;;;6.35;2.40;;;;;;;39.91;22.33;97847.00;10580287;28;20119;-72
2023/06/21 08:50:26;;;;;;;5.40;2.65;;;;;;;40.10;21.80;97844.63;10579995;27;20119;-73
2023/06/21 08:55:47;;;;;;;4.18;2.35;;;;;;;40.40;21.59;97842.38;10583281;27;20067;-72
2023/06/21 09:01:09;;;;;;;4.45;2.50;;;;;;;40.76;21.15;97836.88;10547737;27;20176;-72
2023/06/21 09:06:29;;;;;;;7.43;2.65;;;;;;;40.87;20.89;97840.00;10547212;28;20063;-72
2023/06/21 09:11:51;;;;;;;4.80;2.25;;;;;;;41.39;19.89;97838.66;10571649;28;20067;-72
2023/06/21 09:17:13;;;;;;;4.35;2.20;;;;;;;41.00;20.01;97840.75;10571923;28;20532;-74
2023/06/21 09:22:35;;;;;;;4.18;2.08;;;;;;;41.32;18.88;97828.81;10542201;28;20119;-74
2023/06/21 09:27:55;;;;;;;5.20;2.20;;;;;;;40.72;19.14;97825.38;10514769;28;20450;-73
2023/06/21 09:33:16;;;;;;;5.38;2.05;;;;;;;40.69;19.58;97797.03;10529382;28;20686;-74
2023/06/21 09:38:38;;;;;;;4.57;2.38;;;;;;;40.67;19.20;97818.34;10529008;28;20097;-73
2023/06/21 09:43:59;;;;;;;4.93;2.30;;;;;;;40.98;19.35;97814.50;10506959;28;20577;-73
2023/06/21 09:49:20;;;;;;;4.53;2.40;;;;;;;41.09;18.85;97818.28;10565948;28;20064;-75
2023/06/21 09:54:41;;;;;;;7.05;2.08;;;;;;;40.85;18.19;97819.59;10520132;28;20059;-73
2023/06/21 10:00:05;;;;;;;6.05;2.45;;;;;;;41.22;18.65;97821.28;10540387;28;20036;-73
2023/06/21 10:05:31;;;;;;;5.30;2.60;;;;;;;41.52;18.16;97832.84;10569176;27;20165;-74
2023/06/21 10:10:52;;;;;;;3.58;2.13;;;;;;;41.56;17.63;97821.59;10581811;27;20508;-75
2023/06/21 10:16:13;;;;;;;5.55;2.50;;;;;;;40.17;18.52;97818.72;10588282;27;20042;-72
2023/06/21 10:21:33;;;;;;;8.10;2.22;;;;;;;40.05;19.05;97837.56;10573175;27;20040;-72
2023/06/21 10:26:54;;;;;;;14.60;2.70;;;;;;;40.25;18.72;97845.34;10586032;27;20114;-76
2023/06/21 10:32:15;;;;;;;3.95;2.03;;;;;;;40.16;19.28;97837.78;10579831;28;20075;-73
2023/06/21 10:37:41;;;;;;;6.97;2.20;;;;;;;40.28;18.91;97845.94;10575285;27;20039;-75
2023/06/21 10:43:02;;;;;;;5.53;2.00;;;;;;;40.90;18.81;97856.63;10563730;27;20069;-73
2023/06/21 10:48:22;;;;;;;4.82;2.17;;;;;;;40.70;18.44;97856.97;10585553;27;20043;-72
2023/06/21 10:53:43;;;;;;;5.90;2.58;;;;;;;39.65;19.15;97861.38;10624486;27;20165;-71
2023/06/21 10:59:04;;;;;;;4.53;2.55;;;;;;;39.40;19.68;97852.34;10601965;27;20036;-71
2023/06/21 11:04:25;;;;;;;6.63;2.80;;;;;;;39.25;20.02;97852.28;10542486;28;20095;-74
2023/06/21 11:09:45;;;;;;;3.97;2.47;;;;;;;39.14;19.91;97857.19;10536187;28;20070;-72
2023/06/21 11:15:07;;;;;;;4.22;2.38;;;;;;;39.21;20.04;97870.00;10523684;28;20064;-72
2023/06/21 11:20:31;;;;;;;5.20;2.10;;;;;;;39.05;20.71;97861.97;10554705;28;20123;-72
2023/06/21 11:26:13;;;;;;;6.50;2.60;;;;;;;39.02;20.70;97866.47;10526617;28;20048;-73
2023/06/21 11:31:38;;;;;;;4.53;2.72;;;;;;;38.90;20.98;97865.53;10555553;28;20119;-70
2023/06/21 11:37:32;;;;;;;5.00;2.70;;;;;;;38.93;21.08;97863.94;10557900;28;20114;-69
2023/06/21 11:42:53;;;;;;;5.40;2.47;;;;;;;38.96;21.38;97878.41;10555131;28;20050;-73
2023/06/21 11:48:15;;;;;;;5.93;2.80;;;;;;;38.44;21.52;97864.63;10547222;28;20064;-71
2023/06/21 11:53:41;;;;;;;4.55;2.75;;;;;;;38.06;22.40;97855.97;10529353;28;20115;-72
2023/06/21 11:59:06;;;;;;;8.18;3.20;;;;;;;37.67;22.66;97845.84;10531088;28;20048;-72
2023/06/21 12:04:27;;;;;;;4.57;2.97;;;;;;;37.29;23.36;97841.50;10523502;28;20147;-72
2023/06/21 12:09:49;;;;;;;7.65;3.47;;;;;;;36.97;24.19;97835.44;10555843;28;20039;-72
2023/06/21 12:15:15;;;;;;;9.88;3.92;;;;;;;37.31;24.33;97826.91;10546878;28;20067;-71
2023/06/21 12:20:37;;;;;;;8.05;3.15;;;;;;;37.89;23.55;97823.16;10536194;28;20466;-72
2023/06/21 12:26:00;;;;;;;4.82;3.20;;;;;;;38.21;23.67;97827.63;10549618;28;20450;-71
2023/06/21 12:31:20;;;;;;;5.15;2.85;;;;;;;38.06;23.12;97818.09;10544807;28;20539;-71
2023/06/21 12:36:43;;;;;;;6.07;3.08;;;;;;;37.59;23.56;97810.53;10545749;28;20036;-72
2023/06/21 12:42:05;;;;;;;4.85;3.22;;;;;;;37.25;24.09;97816.16;10518750;28;20056;-70
2023/06/21 12:47:27;;;;;;;6.13;3.45;;;;;;;37.59;24.33;97801.78;10558482;28;20044;-73
2023/06/21 12:53:01;;;;;;;6.38;3.10;;;;;;;37.14;24.24;97801.31;10527195;28;20123;-72
2023/06/21 12:58:21;;;;;;;8.00;3.28;;;;;;;36.94;24.06;97802.06;10546329;28;20238;-73
2023/06/21 13:03:42;;;;;;;7.10;3.40;;;;;;;36.61;24.34;97796.72;10572100;27;20052;-73
2023/06/21 13:09:03;;;;;;;7.55;3.28;;;;;;;36.37;24.89;97787.38;10578777;27;20067;-74
2023/06/21 13:14:24;;;;;;;;;;;;;;;36.53;24.98;97774.47;10558851;27;20070;-72
2023/06/21 13:19:45;;;;;;;7.68;3.40;;;;;;;36.38;24.86;97776.47;10576449;27;20438;-74
2023/06/21 13:25:07;;;;;;;5.80;3.03;;;;;;;36.32;24.86;97797.00;10578652;28;20036;-77
2023/06/21 13:30:28;;;;;;;9.55;3.38;;;;;;;36.33;24.70;97804.22;10588111;27;20095;-72
2023/06/21 13:35:51;;;;;;;6.75;2.88;;;;;;;36.15;25.61;97799.03;10612366;27;20071;-73
2023/06/21 13:41:12;;;;;;;6.47;2.83;;;;;;;36.11;25.48;97812.22;10601253;27;20119;-72
2023/06/21 13:46:32;;;;;;;;;;;;;;;36.18;25.01;97794.56;10586654;27;20063;-73
2023/06/21 13:51:54;;;;;;;9.52;3.20;;;;;;;35.61;25.54;97794.25;10573313;27;20353;-73
2023/06/21 13:57:15;;;;;;;5.75;2.70;;;;;;;35.52;25.42;97793.81;10594538;27;20561;-75
2023/06/21 14:02:35;;;;;;;5.40;2.65;;;;;;;35.16;25.98;97792.00;10573543;27;20130;-72
2023/06/21 14:07:56;;;;;;;6.13;2.92;;;;;;;34.30;26.44;97817.53;10553989;28;20044;-72
2023/06/21 14:13:18;;;;;;;10.60;3.00;;;;;;;33.11;27.80;97810.19;10542678;28;20142;-69
2023/06/21 14:18:42;;;;;;;5.65;2.60;;;;;;;32.40;29.14;97803.63;10545709;28;20051;-73
2023/06/21 14:24:08;;;;;;;10.32;2.97;;;;;;;31.82;29.57;97808.22;10551755;28;20118;-71
2023/06/21 14:30:01;;;;;;;19.48;3.65;;;;;;;30.89;35.92;97871.44;10539965;28;20048;-73
2023/06/21 14:35:23;;;;;;;12.30;2.95;;;;;;;27.60;47.42;97933.69;10540637;28;20093;-73
2023/06/21 14:40:45;;;;;;;16.17;2.70;;;;;;;25.31;55.15;97956.91;10565086;28;20044;-71
2023/06/21 14:46:08;;;;;;;11.40;2.72;;;;;;;24.28;58.45;97925.38;10543267;28;20126;-70
2023/06/21 15:08:02;;;;;;;5.63;1.63;;;;;;;22.64;65.15;97885.84;10540074;28;20075;-69
2023/06/21 15:13:23;;;;;;;5.38;1.90;;;;;;;22.81;64.89;97852.81;10525163;28;20112;-69
2023/06/21 15:18:44;;;;;;;4.43;1.90;;;;;;;22.87;64.69;97830.16;10539926;28;20123;-68
2023/06/21 15:24:05;;;;;;;5.90;2.22;;;;;;;22.93;65.76;97818.19;10540464;28;20122;-69
2023/06/21 15:29:26;;;;;;;11.43;2.80;;;;;;;23.07;65.43;97809.94;10558783;28;20119;-67
2023/06/21 15:34:47;;;;;;;8.85;2.72;;;;;;;23.23;65.91;97804.53;10563980;28;20082;-70
2023/06/21 15:40:08;;;;;;;10.15;2.78;;;;;;;23.37;65.58;97801.97;10552969;28;20165;-68
2023/06/21 15:45:29;;;;;;;5.93;2.42;;;;;;;23.42;65.50;97799.91;10561120;28;20472;-69
2023/06/21 15:50:50;;;;;;;7.00;2.35;;;;;;;23.48;65.90;97811.41;10542934;28;20142;-68
2023/06/21 15:56:11;;;;;;;7.38;2.55;;;;;;;23.54;65.75;97813.63;10547204;28;20150;-69
2023/06/21 16:01:32;;;;;;;5.82;2.42;;;;;;;23.60;65.88;97811.66;10558000;28;20077;-66
2023/06/21 16:06:53;;;;;;;6.43;2.05;;;;;;;23.78;66.32;97807.66;10544891;28;20052;-68
2023/06/21 16:12:14;;;;;;;4.72;1.73;;;;;;;23.95;65.74;97827.19;10552775;28;20190;-67
2023/06/21 16:17:35;;;;;;;4.22;1.50;;;;;;;24.05;64.96;97812.38;10559511;28;20085;-69
2023/06/21 16:22:56;;;;;;;6.38;1.55;;;;;;;24.18;64.52;97824.69;10560223;28;20040;-68
2023/06/21 16:28:17;;;;;;;4.95;1.30;;;;;;;24.41;64.48;97822.91;10560359;28;20397;-67
2023/06/21 16:33:37;;;;;;;1.88;0.88;;;;;;;24.64;63.70;97821.09;10577579;28;20399;-69
2023/06/21 16:38:58;;;;;;;3.33;1.13;;;;;;;24.77;63.25;97834.09;10564767;28;20477;-69
2023/06/21 16:44:19;;;;;;;3.75;1.10;;;;;;;24.91;62.48;97836.44;10580715;28;20652;-69
2023/06/21 16:49:41;;;;;;;4.45;1.45;;;;;;;25.06;62.17;97852.31;10550980;28;20162;-69
2023/06/21 16:55:03;;;;;;;6.18;1.42;;;;;;;25.05;61.43;97860.19;10580556;28;20485;-69
2023/06/21 17:00:24;;;;;;;4.83;1.70;;;;;;;24.97;61.23;97865.03;10536861;28;20074;-69
2023/06/21 17:05:44;;;;;;;4.70;1.50;;;;;;;24.83;61.16;97869.16;10590379;28;20043;-68
2023/06/21 17:11:05;;;;;;;6.85;2.25;;;;;;;24.74;61.34;97870.47;10629063;27;20454;-70
2023/06/21 17:16:25;;;;;;;8.32;2.40;;;;;;;24.64;61.77;97878.88;10600469;27;20528;-69
2023/06/21 17:21:46;;;;;;;7.00;2.85;;;;;;;24.49;62.52;97871.53;10630498;27;20122;-68
2023/06/21 17:27:07;;;;;;;5.18;2.13;;;;;;;24.36;62.47;97864.22;10614348;27;20169;-69
2023/06/21 17:32:28;;;;;;;5.63;2.63;;;;;;;24.30;63.18;97859.09;10600291;27;20115;-69
2023/06/21 17:37:49;;;;;;;6.13;1.80;;;;;;;24.36;63.57;97870.63;10629261;27;20135;-69
2023/06/21 17:43:09;;;;;;;5.50;2.00;;;;;;;24.39;63.26;97877.06;10613611;27;20059;-68
2023/06/21 17:48:30;;;;;;;7.05;2.22;;;;;;;24.28;63.57;97891.16;10628772;27;20452;-69
2023/06/21 17:53:51;;;;;;;6.15;2.00;;;;;;;24.21;64.14;97915.28;10613440;27;20047;-69
2023/06/21 17:59:12;;;;;;;8.85;1.80;;;;;;;24.10;64.09;97922.22;10628541;27;20070;-68
2023/06/21 18:04:32;;;;;;;6.05;2.10;;;;;;;23.87;64.59;97921.13;10597750;27;20123;-68
2023/06/21 18:09:53;;;;;;;5.88;2.28;;;;;;;23.72;64.94;97927.25;10585671;28;20127;-69
2023/06/21 18:15:13;;;;;;;6.20;2.90;;;;;;;23.55;65.86;97929.78;10570172;28;20040;-69
2023/06/21 18:20:34;;;;;;;7.00;2.25;;;;;;;23.51;66.41;97943.94;10584525;28;20119;-69
2023/06/21 18:25:56;;;;;;;6.03;2.30;;;;;;;23.43;66.53;97938.06;10584757;28;20149;-67
2023/06/21 18:31:16;;;;;;;6.38;2.60;;;;;;;23.35;66.97;97946.44;10555581;28;20520;-68
2023/06/21 18:36:37;;;;;;;4.65;2.30;;;;;;;23.25;67.12;97961.19;10569144;28;20453;-69
2023/06/21 18:41:57;;;;;;;5.55;2.65;;;;;;;23.18;67.79;97958.91;10584875;28;20115;-68
2023/06/21 18:47:18;;;;;;;8.80;2.40;;;;;;;23.06;67.93;97968.63;10584007;28;20488;-69
2023/06/21 18:52:41;;;;;;;;;;;;;;;22.96;69.00;97970.53;10555283;28;20107;-69
2023/06/21 18:58:02;;;;;;;6.10;2.88;;;;;;;22.88;68.83;97971.09;10583723;28;19927;-69
2023/06/21 19:03:23;;;;;;;6.30;2.88;;;;;;;22.93;69.39;97981.16;10588666;27;20051;-68
2023/06/21 19:08:44;;;;;;;7.07;2.60;;;;;;;22.94;69.53;97988.28;10595973;27;20045;-68
2023/06/21 19:14:05;;;;;;;4.28;2.10;;;;;;;22.90;69.22;97996.75;10625264;27;20048;-69
2023/06/21 19:19:26;;;;;;;11.48;2.70;;;;;;;22.84;69.85;97997.31;10625017;27;20046;-68
2023/06/21 19:24:48;;;;;;;4.97;2.97;;;;;;;22.77;70.79;98006.34;10624993;27;20039;-68
2023/06/21 19:30:09;;;;;;;6.13;3.30;;;;;;;22.70;70.76;98024.69;10609015;27;20058;-68
2023/06/21 19:35:31;;;;;;;4.43;2.65;;;;;;;22.55;70.73;98032.16;10609033;27;20039;-69
2023/06/21 19:40:52;;;;;;;6.60;3.00;;;;;;;22.42;71.16;98030.41;10581119;27;20473;-69
2023/06/21 19:46:13;;;;;;;6.57;2.95;;;;;;;22.27;71.83;98044.25;10608994;27;20039;-69
2023/06/21 19:51:34;;;;;;;7.53;3.30;;;;;;;22.12;72.32;98038.88;10609015;27;20043;-68
2023/06/21 19:56:55;;;;;;;9.75;3.13;;;;;;;22.01;73.26;98057.75;10608800;27;20043;-67
2023/06/21 20:02:16;;;;;;;8.23;3.42;;;;;;;21.96;73.50;98056.88;10624058;27;20043;-69
2023/06/21 20:07:37;;;;;;;9.25;3.05;;;;;;;21.88;74.09;98062.34;10580004;28;20488;-68
2023/06/21 20:12:58;;;;;;;8.77;3.38;;;;;;;21.84;74.06;98065.09;10580422;28;20114;-68
2023/06/21 20:18:20;;;;;;;7.60;3.13;;;;;;;21.80;74.28;98075.59;10581117;28;20123;-68
2023/06/21 20:23:41;;;;;;;10.77;3.42;;;;;;;21.73;74.94;98074.72;10580225;28;20059;-68
2023/06/21 20:29:01;;;;;;;7.10;3.30;;;;;;;21.74;74.95;98058.38;10580266;28;20132;-69
2023/06/21 20:34:22;;;;;;;9.38;3.45;;;;;;;21.71;74.32;98046.22;10579991;28;20078;-69
2023/06/21 20:39:43;;;;;;;8.38;3.80;;;;;;;21.69;75.16;98055.41;10580932;28;20039;-69
2023/06/21 20:45:06;;;;;;;4.82;3.40;;;;;;;21.64;74.99;98048.19;10585863;28;20039;-69
2023/06/21 20:50:27;;;;;;;;;;;;;;;21.62;75.89;98038.88;10588367;28;20123;-68
2023/06/21 20:55:48;;;;;;;6.95;3.72;;;;;;;21.65;75.42;98058.16;10588434;28;19919;-68
2023/06/21 21:01:13;;;;;;;8.52;3.55;;;;;;;21.66;75.48;98050.34;10588423;28;20438;-68
2023/06/21 21:06:35;;;;;;;7.45;3.38;;;;;;;21.63;75.35;98048.84;10587238;28;20142;-68
2023/06/21 21:11:57;;;;;;;4.93;3.35;;;;;;;21.60;75.03;98050.16;10587019;28;20140;-68
2023/06/21 21:17:17;;;;;;;7.35;3.38;;;;;;;21.55;75.63;98052.19;10572658;28;20079;-68
2023/06/21 21:22:38;;;;;;;5.72;3.58;;;;;;;21.57;75.12;98048.66;10586546;28;20082;-69
2023/06/21 21:27:59;;;;;;;6.80;3.40;;;;;;;21.57;75.47;98055.06;10586280;28;20115;-68
2023/06/21 21:33:19;;;;;;;5.93;3.13;;;;;;;21.66;75.59;98064.56;10585920;28;20462;-69
2023/06/21 21:38:42;;;;;;;6.43;3.28;;;;;;;21.75;75.24;98065.50;10585760;28;20127;-68
2023/06/21 21:44:04;;;;;;;7.50;3.42;;;;;;;21.79;75.10;98062.78;10571948;28;20042;-69
2023/06/21 21:49:25;;;;;;;7.18;3.58;;;;;;;21.69;74.84;98074.56;10585220;28;20123;-67
2023/06/21 21:54:45;;;;;;;7.05;3.63;;;;;;;21.67;75.23;98066.00;10569781;28;20119;-68
2023/06/21 22:00:10;;;;;;;9.77;3.65;;;;;;;21.64;75.30;98061.66;10570652;28;20078;-69
2023/06/21 22:05:34;;;;;;;7.25;3.38;;;;;;;21.63;75.55;98060.22;10585768;28;20059;-69
2023/06/21 22:10:55;;;;;;;6.13;3.53;;;;;;;21.61;75.65;98062.97;10585299;28;20036;-69
2023/06/21 22:16:17;;;;;;;4.70;2.92;;;;;;;21.63;75.07;98054.53;10570083;28;20035;-69
2023/06/21 22:21:37;;;;;;;8.40;3.47;;;;;;;21.65;75.46;98061.00;10585249;28;20051;-69
2023/06/21 22:26:59;;;;;;;7.43;3.55;;;;;;;21.64;75.48;98045.34;10569201;28;20122;-68
2023/06/21 22:32:21;;;;;;;5.80;3.30;;;;;;;21.60;75.25;98061.53;10569874;28;20040;-69
2023/06/21 22:37:42;;;;;;;6.05;3.38;;;;;;;21.51;75.34;98079.72;10569221;28;20048;-69
2023/06/21 22:43:03;;;;;;;5.43;3.58;;;;;;;21.42;75.52;98078.75;10569018;28;20507;-68
2023/06/21 22:48:24;;;;;;;6.72;3.83;;;;;;;21.32;76.02;98070.66;10583758;28;20044;-69
2023/06/21 22:53:44;;;;;;;11.60;4.32;;;;;;;21.21;76.22;98062.47;10568545;28;20111;-68
2023/06/21 22:59:05;;;;;;;7.95;3.88;;;;;;;21.14;76.40;98067.25;10583740;28;20122;-69
2023/06/21 23:04:25;;;;;;;7.18;3.70;;;;;;;21.10;76.64;98061.44;10582596;27;20126;-68
2023/06/21 23:09:47;;;;;;;8.70;3.90;;;;;;;21.05;76.82;98060.59;10610144;27;20127;-68
2023/06/21 23:15:08;;;;;;;5.78;3.70;;;;;;;21.03;77.34;98059.78;10625444;27;20122;-69
2023/06/21 23:20:33;;;;;;;8.75;4.22;;;;;;;21.04;77.35;98069.78;10625346;27;20123;-68
2023/06/21 23:25:58;;;;;;;8.70;4.38;;;;;;;21.02;77.24;98072.53;10624895;27;20451;-68
2023/06/21 23:31:20;;;;;;;6.65;4.25;;;;;;;20.99;77.39;98071.00;10610172;27;20119;-68
2023/06/21 23:36:41;;;;;;;6.10;4.25;;;;;;;20.95;77.64;98059.53;10625117;27;20157;-69
2023/06/21 23:42:03;;;;;;;6.35;4.25;;;;;;;20.93;77.40;98070.81;10624725;27;20043;-69
2023/06/21 23:47:23;;;;;;;8.27;3.63;;;;;;;20.86;77.85;98069.91;10624587;27;20127;-68
2023/06/21 23:52:44;;;;;;;7.57;3.92;;;;;;;20.86;77.85;98076.31;10624345;27;20180;-68
2023/06/21 23:58:04;;;;;;;8.88;3.88;;;;;;;20.80;78.30;98075.38;10624305;27;20130;-69
